createdAt,value
2022-12-16T00:00:32.314Z,35.47
2022-12-16T00:02:05.141Z,38.20
2022-12-16T00:03:38.356Z,36.17
2022-12-16T00:05:10.152Z,36.55
2022-12-16T00:06:41.854Z,36.10
2022-12-16T00:08:13.600Z,35.30
2022-12-16T00:09:45.332Z,37.08
2022-12-16T00:11:17.086Z,40.72
2022-12-16T00:12:48.849Z,41.13
2022-12-16T00:14:20.628Z,39.13
2022-12-16T00:15:52.614Z,41.58
2022-12-16T00:17:25.174Z,40.50
2022-12-16T00:18:56.952Z,37.78
2022-12-16T00:20:28.672Z,37.15
2022-12-16T00:22:00.428Z,36.53
2022-12-16T00:23:33.025Z,37.13
2022-12-16T00:25:05.389Z,40.72
2022-12-16T00:26:37.668Z,36.65
2022-12-16T00:28:11.861Z,38.72
2022-12-16T00:29:43.561Z,33.58
2022-12-16T00:31:15.387Z,39.22
2022-12-16T00:32:47.175Z,38.13
2022-12-16T00:34:18.988Z,38.70
2022-12-16T00:35:51.922Z,35.95
2022-12-16T00:37:23.641Z,39.42
2022-12-16T00:38:55.391Z,40.15
2022-12-16T00:40:27.301Z,36.53
2022-12-16T00:41:59.151Z,39.30
2022-12-16T00:43:31.328Z,37.97
2022-12-16T00:45:04.873Z,35.40
2022-12-16T00:46:36.649Z,34.78
2022-12-16T00:48:08.781Z,36.90
2022-12-16T00:49:40.521Z,39.15
2022-12-16T00:51:12.227Z,36.03
2022-12-16T00:52:44.434Z,33.63
2022-12-16T00:54:16.175Z,35.10
2022-12-16T00:55:48.206Z,36.38
2022-12-16T00:57:19.918Z,35.72
2022-12-16T00:58:51.714Z,35.05
2022-12-16T01:00:24.132Z,39.08
2022-12-16T01:01:56.002Z,34.67
2022-12-16T01:03:28.179Z,36.25
2022-12-16T01:04:59.975Z,34.50
2022-12-16T01:06:31.736Z,33.00
2022-12-16T01:08:03.508Z,36.17
2022-12-16T01:09:35.651Z,35.53
2022-12-16T01:11:07.372Z,35.03
2022-12-16T01:12:39.246Z,34.67
2022-12-16T01:14:11.028Z,37.40
2022-12-16T01:15:42.748Z,34.85
2022-12-16T01:17:14.487Z,38.03
2022-12-16T01:18:46.252Z,38.10
2022-12-16T01:20:18.038Z,41.00
2022-12-16T01:21:49.744Z,37.92
2022-12-16T01:23:22.792Z,39.85
2022-12-16T01:24:54.535Z,39.88
2022-12-16T01:26:27.081Z,37.33
2022-12-16T01:27:58.828Z,36.30
2022-12-16T01:29:30.560Z,39.00
2022-12-16T09:14:16.312Z,44.13
2022-12-16T09:16:06.752Z,42.70
2022-12-16T09:17:57.366Z,40.83
2022-12-16T09:19:47.470Z,43.88
2022-12-16T09:21:37.683Z,43.17
2022-12-16T09:23:27.988Z,42.13
2022-12-16T09:25:20.698Z,40.88
2022-12-16T09:27:10.790Z,45.50
2022-12-16T09:29:01.253Z,41.80
2022-12-16T09:30:51.312Z,41.10
2022-12-16T09:32:42.052Z,40.30
2022-12-16T09:34:32.453Z,33.83
2022-12-16T09:36:23.069Z,41.10
2022-12-16T09:38:13.762Z,40.97
2022-12-16T09:40:04.028Z,36.47
2022-12-16T09:42:01.381Z,36.45
2022-12-16T09:44:14.136Z,42.63
2022-12-16T09:46:10.528Z,38.55
2022-12-16T09:48:20.773Z,37.55
2022-12-16T09:50:13.288Z,35.15
2022-12-16T09:52:04.963Z,36.22
2022-12-16T09:55:52.721Z,36.33
2022-12-16T09:57:48.055Z,32.08
2022-12-16T09:59:47.324Z,35.50
2022-12-16T10:01:39.744Z,36.70
2022-12-16T10:03:49.720Z,34.60
2022-12-16T10:05:49.024Z,35.05
2022-12-16T10:07:41.598Z,38.17
2022-12-16T10:09:43.757Z,34.10
2022-12-16T10:11:47.209Z,37.72
2022-12-16T10:13:56.008Z,34.65
2022-12-16T10:16:04.022Z,34.83
2022-12-16T10:17:59.582Z,37.75
2022-12-16T10:20:08.724Z,38.95
2022-12-16T10:22:18.831Z,37.85
2022-12-16T10:24:19.932Z,35.15
2022-12-16T10:26:26.260Z,27.42
2022-12-16T10:28:45.409Z,35.80
2022-12-16T10:30:43.248Z,34.85
2022-12-16T10:32:56.828Z,35.22
2022-12-16T10:34:51.516Z,34.85
2022-12-16T10:36:43.121Z,32.95
2022-12-16T10:38:41.409Z,36.92
2022-12-16T10:40:38.957Z,38.13
2022-12-16T10:42:50.229Z,36.97
2022-12-16T10:45:14.585Z,39.53
2022-12-16T10:47:04.920Z,37.45
2022-12-16T10:48:56.971Z,39.17
2022-12-16T10:50:48.023Z,36.30
2022-12-16T10:52:38.113Z,35.90
2022-12-16T10:54:48.237Z,38.08
2022-12-16T10:56:53.913Z,38.25
2022-12-16T10:59:12.096Z,36.33
2022-12-16T11:01:04.873Z,36.30
2022-12-16T11:02:55.455Z,36.50
2022-12-16T11:04:49.913Z,41.20
2022-12-16T11:06:57.627Z,37.72
2022-12-16T11:08:47.778Z,38.95
2022-12-16T11:10:48.937Z,38.63
2022-12-16T11:12:47.145Z,36.63
2022-12-16T11:15:12.469Z,40.83
2022-12-16T11:16:58.482Z,37.88
2022-12-16T11:18:48.910Z,38.65
2022-12-16T11:20:42.246Z,37.17
2022-12-16T11:22:38.180Z,38.55
2022-12-16T11:24:28.478Z,38.80
2022-12-16T11:26:24.770Z,40.20
2022-12-16T11:33:12.838Z,45.47
2022-12-16T11:35:08.811Z,41.45
2022-12-16T11:37:00.875Z,42.35
2022-12-16T11:39:07.589Z,46.45
2022-12-16T11:40:58.249Z,41.97
2022-12-16T11:42:51.190Z,44.63
2022-12-16T11:44:47.723Z,47.85
2022-12-16T11:46:45.017Z,46.85
2022-12-16T11:49:02.568Z,45.88
2022-12-16T11:50:56.762Z,44.50
2022-12-16T11:52:47.311Z,41.95
2022-12-16T11:55:12.268Z,41.22
2022-12-16T11:57:04.793Z,46.72
2022-12-16T11:59:11.505Z,43.28
2022-12-16T12:01:12.984Z,42.13
2022-12-16T12:03:11.506Z,38.38
2022-12-16T12:05:02.298Z,38.72
2022-12-16T12:07:09.495Z,41.73
2022-12-16T12:09:28.134Z,40.88
2022-12-16T12:11:27.836Z,43.55
2022-12-16T12:13:46.893Z,44.80
2022-12-16T12:15:46.388Z,38.67
2022-12-16T12:17:36.648Z,44.45
2022-12-16T12:19:39.313Z,43.80
2022-12-16T12:21:45.270Z,42.28
2022-12-16T12:23:59.457Z,40.67
2022-12-16T12:26:13.210Z,40.47
2022-12-16T12:28:14.341Z,40.80
2022-12-16T12:30:33.862Z,38.72
2022-12-16T12:32:45.745Z,39.85
